createdAt,value
2018-07-12T00:01:23.538Z,98089.98
2018-07-12T00:03:50.818Z,98090.48
2018-07-12T00:06:18.223Z,98090.04
2018-07-12T00:08:45.504Z,98090.78
2018-07-12T00:11:13.239Z,98093.23
2018-07-12T00:13:40.548Z,98096.44
2018-07-12T00:16:07.865Z,98092.40
2018-07-12T00:18:35.134Z,98092.03
2018-07-12T00:21:02.447Z,98103.52
2018-07-12T00:23:29.731Z,98101.86
2018-07-12T00:25:57.029Z,98102.17
2018-07-12T00:28:24.318Z,98097.20
2018-07-12T00:30:51.609Z,98098.62
2018-07-12T00:33:18.944Z,98103.74
2018-07-12T00:35:46.221Z,98104.95
2018-07-12T00:38:13.513Z,98097.88
2018-07-12T00:40:40.794Z,98100.88
2018-07-12T00:43:08.093Z,98096.13
2018-07-12T00:45:35.349Z,98097.56
2018-07-12T00:48:02.671Z,98103.77
2018-07-12T00:50:29.954Z,98092.61
2018-07-12T00:52:57.270Z,98087.30
2018-07-12T00:55:24.545Z,98088.72
2018-07-12T00:57:51.878Z,98088.33
2018-07-12T01:00:19.186Z,98084.14
2018-07-12T01:02:46.483Z,98089.30
2018-07-12T01:05:13.762Z,98089.63
2018-07-12T01:07:41.074Z,98093.22
2018-07-12T01:10:08.345Z,98096.58
2018-07-12T01:12:35.646Z,98098.95
2018-07-12T01:15:02.914Z,98105.36
2018-07-12T01:17:30.221Z,98101.95
2018-07-12T01:19:57.519Z,98100.08
2018-07-12T01:22:25.198Z,98102.33
2018-07-12T01:24:52.478Z,98096.63
2018-07-12T01:27:19.765Z,98099.12
2018-07-12T01:29:47.033Z,98091.06
2018-07-12T01:32:14.369Z,98102.03
2018-07-12T01:34:41.641Z,98089.81
2018-07-12T01:37:08.985Z,98086.77
2018-07-12T01:39:36.253Z,98084.34
2018-07-12T01:42:03.546Z,98086.52
2018-07-12T01:44:30.813Z,98085.95
2018-07-12T01:46:58.187Z,98086.77
2018-07-12T01:49:25.478Z,98091.02
2018-07-12T01:51:53.157Z,98096.33
2018-07-12T01:54:20.457Z,98091.99
2018-07-12T01:56:47.779Z,98084.52
2018-07-12T01:59:15.053Z,98082.84
2018-07-12T02:01:42.331Z,98073.52
2018-07-12T02:04:09.671Z,98074.39
2018-07-12T02:06:36.997Z,98073.63
2018-07-12T02:09:05.027Z,98076.50
2018-07-12T02:11:32.386Z,98074.09
2018-07-12T02:13:59.697Z,98074.25
2018-07-12T02:16:26.973Z,98074.72
2018-07-12T02:18:54.273Z,98078.42
2018-07-12T02:21:21.540Z,98071.27
2018-07-12T02:23:48.866Z,98075.10
2018-07-12T02:26:16.175Z,98080.08
2018-07-12T02:28:43.478Z,98074.45
2018-07-12T02:31:10.746Z,98077.90
2018-07-12T02:33:38.061Z,98086.80
2018-07-12T02:36:05.337Z,98078.48
2018-07-12T02:38:32.674Z,98078.75
2018-07-12T02:40:59.937Z,98073.89
2018-07-12T02:43:27.255Z,98065.78
2018-07-12T02:45:54.521Z,98063.36
2018-07-12T02:48:22.741Z,98065.00
2018-07-12T02:50:51.030Z,98060.73
2018-07-12T02:53:18.350Z,98061.00
2018-07-12T02:55:45.641Z,98061.31
2018-07-12T02:58:12.938Z,98066.30
2018-07-12T03:00:40.245Z,98070.13
2018-07-12T03:03:07.575Z,98066.16
2018-07-12T03:05:34.874Z,98062.89
2018-07-12T03:08:02.207Z,98064.35
2018-07-12T03:10:29.722Z,98066.78
2018-07-12T03:12:57.076Z,98068.56
2018-07-12T03:15:24.394Z,98069.80
2018-07-12T03:17:59.023Z,98065.41
2018-07-12T03:20:26.351Z,98060.84
2018-07-12T03:22:54.083Z,98065.39
2018-07-12T03:25:21.882Z,98060.89
2018-07-12T03:27:49.213Z,98067.72
2018-07-12T03:30:17.001Z,98067.41
2018-07-12T03:32:44.611Z,98067.58
2018-07-12T03:35:11.975Z,98074.80
2018-07-12T03:37:40.015Z,98075.11
2018-07-12T03:40:07.535Z,98078.94
2018-07-12T03:42:35.003Z,98077.63
2018-07-12T03:45:02.674Z,98075.36
2018-07-12T03:47:29.985Z,98083.73
2018-07-12T03:49:57.304Z,98087.19
2018-07-12T03:52:24.910Z,98094.16
2018-07-12T03:54:52.286Z,98091.68
2018-07-12T03:57:19.684Z,98100.72
2018-07-12T03:59:47.003Z,98102.62
2018-07-12T04:02:14.278Z,98100.47
2018-07-12T04:04:41.601Z,98102.27
2018-07-12T04:07:08.906Z,98098.72
2018-07-12T04:09:36.221Z,98097.63
2018-07-12T04:12:03.514Z,98098.59
2018-07-12T04:14:30.827Z,98102.69
2018-07-12T04:16:58.112Z,98106.50
2018-07-12T04:19:25.421Z,98107.90
2018-07-12T04:21:52.959Z,98100.72
2018-07-12T04:24:20.259Z,98106.66
2018-07-12T04:26:47.539Z,98100.25
2018-07-12T04:29:14.845Z,98105.98
2018-07-12T04:31:42.414Z,98112.86
2018-07-12T04:34:09.718Z,98106.81
2018-07-12T04:36:37.086Z,98113.00
2018-07-12T04:39:05.058Z,98117.70
2018-07-12T04:41:32.570Z,98109.19
2018-07-12T04:43:59.858Z,98108.88
2018-07-12T04:46:27.238Z,98105.61
2018-07-12T04:48:54.527Z,98107.91
2018-07-12T04:51:21.854Z,98113.23
2018-07-12T04:53:49.461Z,98112.27
2018-07-12T04:56:16.777Z,98101.28
2018-07-12T04:58:44.070Z,98107.07
2018-07-12T05:01:11.403Z,98117.39
2018-07-12T05:03:38.700Z,98114.46
2018-07-12T05:06:06.482Z,98117.23
2018-07-12T05:08:33.774Z,98118.48
2018-07-12T05:11:01.090Z,98116.31
2018-07-12T05:13:28.414Z,98119.11
2018-07-12T05:15:55.754Z,98116.94
2018-07-12T05:18:23.014Z,98114.61
2018-07-12T05:20:50.305Z,98114.45
2018-07-12T05:23:17.589Z,98106.50
2018-07-12T05:25:44.891Z,98100.98
2018-07-12T05:28:12.165Z,98113.48
2018-07-12T05:30:39.482Z,98119.50
2018-07-12T05:33:06.750Z,98119.11
2018-07-12T05:35:35.262Z,98115.69
2018-07-12T05:38:03.712Z,98114.98
2018-07-12T05:40:32.242Z,98110.64
2018-07-12T05:43:00.698Z,98113.42
2018-07-12T05:45:29.222Z,98108.57
2018-07-12T05:47:57.710Z,98111.73
2018-07-12T05:50:26.210Z,98114.14
2018-07-12T05:52:54.669Z,98122.77
2018-07-12T05:55:23.181Z,98126.33
2018-07-12T05:57:51.682Z,98126.28
2018-07-12T06:00:20.257Z,98128.13
2018-07-12T06:02:48.770Z,98122.91
2018-07-12T06:05:17.266Z,98123.94
2018-07-12T06:07:45.737Z,98126.72
2018-07-12T06:10:14.251Z,98126.81
2018-07-12T06:12:42.729Z,98129.36
2018-07-12T06:15:11.226Z,98129.69
2018-07-12T06:17:39.698Z,98134.03
2018-07-12T06:20:10.070Z,98139.01
2018-07-12T06:22:38.554Z,98138.05
2018-07-12T06:25:07.275Z,98143.09
2018-07-12T06:27:35.793Z,98148.64
2018-07-12T06:30:05.145Z,98145.84
2018-07-12T06:32:33.679Z,98149.63
2018-07-12T06:35:02.170Z,98153.17
2018-07-12T06:37:30.729Z,98152.91
2018-07-12T06:39:59.178Z,98147.59
2018-07-12T06:42:27.680Z,98155.53
2018-07-12T06:44:56.161Z,98155.44
2018-07-12T06:47:24.714Z,98154.41
2018-07-12T06:49:53.121Z,98158.33
2018-07-12T06:52:21.689Z,98163.36
2018-07-12T06:54:50.230Z,98161.78
2018-07-12T06:57:18.763Z,98154.03
2018-07-12T07:01:11.710Z,98158.39
2018-07-12T07:03:40.270Z,98162.97
2018-07-12T07:06:08.786Z,98164.84
2018-07-12T07:08:37.308Z,98158.58
2018-07-12T07:11:05.853Z,98160.49
2018-07-12T07:13:34.457Z,98162.28
2018-07-12T07:16:03.346Z,98169.17
2018-07-12T07:18:35.474Z,98166.66
2018-07-12T07:21:04.058Z,98159.52
2018-07-12T07:23:32.646Z,98159.77
2018-07-12T07:26:01.176Z,98152.30
2018-07-12T07:28:29.720Z,98156.84
2018-07-12T07:30:58.607Z,98156.43
2018-07-12T07:33:31.983Z,98165.32
2018-07-12T07:36:00.494Z,98168.30
2018-07-12T07:38:29.030Z,98162.77
2018-07-12T07:40:58.082Z,98172.61
2018-07-12T07:43:26.630Z,98167.97
2018-07-12T07:45:55.163Z,98165.47
2018-07-12T07:48:24.113Z,98176.05
2018-07-12T07:50:52.628Z,98165.92
2018-07-12T07:53:21.185Z,98164.15
2018-07-12T07:55:49.693Z,98161.23
2018-07-12T07:58:18.335Z,98161.09
2018-07-12T08:00:46.838Z,98167.92
2018-07-12T08:03:15.484Z,98158.26
2018-07-12T08:05:43.956Z,98158.59
2018-07-12T08:08:12.499Z,98154.54
2018-07-12T08:10:41.055Z,98162.84
2018-07-12T08:13:09.609Z,98167.81
2018-07-12T08:15:38.186Z,98167.85
2018-07-12T08:18:06.777Z,98162.75
2018-07-12T08:20:35.324Z,98162.19
2018-07-12T08:23:03.883Z,98169.52
2018-07-12T08:25:32.446Z,98161.70
2018-07-12T08:28:12.646Z,98164.67
2018-07-12T08:30:42.984Z,98166.41
2018-07-12T08:33:11.763Z,98168.42
2018-07-12T08:35:40.334Z,98171.81
2018-07-12T08:38:08.953Z,98175.94
2018-07-12T08:40:37.636Z,98164.61
2018-07-12T08:43:06.502Z,98165.51
2018-07-12T08:45:35.102Z,98168.12
2018-07-12T08:48:04.638Z,98173.02
2018-07-12T08:50:34.329Z,98167.16
2018-07-12T08:53:03.479Z,98161.19
2018-07-12T08:55:32.781Z,98172.29
2018-07-12T08:58:01.445Z,98174.13
2018-07-12T09:00:30.100Z,98165.23
2018-07-12T09:02:58.680Z,98162.55
2018-07-12T09:05:27.222Z,98161.33
2018-07-12T09:07:55.837Z,98158.42
2018-07-12T09:10:24.423Z,98153.70
2018-07-12T09:12:53.486Z,98147.58
2018-07-12T09:15:22.014Z,98160.25
2018-07-12T09:17:50.535Z,98150.49
2018-07-12T09:20:19.105Z,98150.20
2018-07-12T09:22:47.623Z,98146.36
2018-07-12T09:25:16.133Z,98144.27
2018-07-12T09:27:44.626Z,98150.41
2018-07-12T09:30:13.132Z,98156.00
2018-07-12T09:32:41.902Z,98151.98
2018-07-12T09:35:10.991Z,98155.53
2018-07-12T09:37:39.542Z,98159.13
2018-07-12T09:40:08.098Z,98162.64
2018-07-12T09:42:36.577Z,98145.01
2018-07-12T09:45:05.143Z,98151.63
2018-07-12T09:47:33.713Z,98154.08
2018-07-12T09:50:02.228Z,98147.30
2018-07-12T09:52:33.650Z,98156.63
2018-07-12T09:55:02.647Z,98161.09
2018-07-12T09:57:43.014Z,98165.92
2018-07-12T10:00:11.931Z,98148.91
2018-07-12T10:02:45.650Z,98154.12
2018-07-12T10:05:19.502Z,98153.29
2018-07-12T10:07:51.531Z,98158.45
2018-07-12T10:10:24.219Z,98159.84
2018-07-12T10:12:58.043Z,98164.81
2018-07-12T10:15:31.763Z,98153.88
2018-07-12T10:18:05.677Z,98154.80
2018-07-12T10:20:34.198Z,98156.87
2018-07-12T10:23:02.674Z,98157.30
2018-07-12T10:25:31.179Z,98165.17
2018-07-12T10:27:59.666Z,98154.39
2018-07-12T10:30:28.186Z,98156.77
2018-07-12T10:32:56.670Z,98161.27
2018-07-12T10:35:25.208Z,98162.16
2018-07-12T10:37:53.694Z,98153.20
2018-07-12T10:40:22.185Z,98151.72
2018-07-12T10:42:50.682Z,98157.20
2018-07-12T10:45:19.205Z,98153.12
2018-07-12T10:47:47.659Z,98153.05
2018-07-12T10:50:16.164Z,98151.41
2018-07-12T10:52:44.623Z,98158.06
2018-07-12T10:55:13.111Z,98150.06
2018-07-12T10:57:41.589Z,98152.80
2018-07-12T11:00:10.903Z,98139.75
2018-07-12T11:02:39.383Z,98143.61
2018-07-12T11:05:07.889Z,98139.08
2018-07-12T11:07:36.461Z,98142.31
2018-07-12T11:10:05.363Z,98130.08
2018-07-12T11:12:34.074Z,98124.91
2018-07-12T11:15:03.420Z,98119.41
2018-07-12T11:17:32.036Z,98130.91
2018-07-12T11:20:02.394Z,98130.66
2018-07-12T11:22:32.381Z,98130.67
2018-07-12T11:25:01.996Z,98131.78
2018-07-12T11:27:37.489Z,98142.32
2018-07-12T11:30:12.731Z,98126.35
2018-07-12T11:32:45.124Z,98119.09
2018-07-12T11:35:15.730Z,98121.08
2018-07-12T11:37:46.401Z,98125.30
2018-07-12T11:40:17.576Z,98124.88
2018-07-12T11:42:47.677Z,98124.25
2018-07-12T11:45:16.207Z,98133.55
2018-07-12T11:47:44.794Z,98133.84
2018-07-12T11:50:13.289Z,98132.20
2018-07-12T11:52:41.890Z,98122.35
2018-07-12T11:55:10.400Z,98120.58
2018-07-12T11:57:38.909Z,98124.80
2018-07-12T12:00:07.475Z,98117.35
2018-07-12T12:02:35.998Z,98110.42
2018-07-12T12:05:04.534Z,98113.20
2018-07-12T12:07:33.091Z,98116.27
2018-07-12T12:10:01.580Z,98105.77
2018-07-12T12:12:30.175Z,98109.97
2018-07-12T12:14:58.680Z,98107.36
2018-07-12T12:17:27.236Z,98099.44
2018-07-12T12:19:55.883Z,98100.48
2018-07-12T12:22:24.446Z,98102.18
2018-07-12T12:24:52.931Z,98093.58
2018-07-12T12:27:21.717Z,98100.22
2018-07-12T12:29:50.251Z,98101.44
2018-07-12T12:32:18.834Z,98093.51
2018-07-12T12:34:47.440Z,98101.13
2018-07-12T12:37:16.239Z,98101.91
2018-07-12T12:39:44.942Z,98101.30
2018-07-12T12:42:13.467Z,98105.71
2018-07-12T12:44:41.967Z,98101.16
2018-07-12T12:47:10.455Z,98093.64
2018-07-12T12:49:38.976Z,98091.62
2018-07-12T12:52:07.483Z,98096.16
2018-07-12T12:54:35.994Z,98097.28
2018-07-12T12:57:04.482Z,98089.63
2018-07-12T12:59:33.021Z,98104.44
2018-07-12T13:02:01.512Z,98097.39
2018-07-12T13:04:30.020Z,98099.21
2018-07-12T13:06:58.502Z,98097.01
2018-07-12T13:09:27.046Z,98105.16
2018-07-12T13:11:55.560Z,98104.58
2018-07-12T13:14:24.108Z,98102.09
2018-07-12T13:16:52.602Z,98100.88
2018-07-12T13:19:21.114Z,98099.30
2018-07-12T13:21:49.686Z,98102.83
2018-07-12T13:24:18.191Z,98102.81
2018-07-12T13:26:46.646Z,98106.81
2018-07-12T13:29:15.140Z,98107.12
2018-07-12T13:31:43.950Z,98100.56
2018-07-12T13:34:12.467Z,98098.48
2018-07-12T13:36:40.922Z,98105.20
2018-07-12T13:39:10.184Z,98102.10
2018-07-12T13:41:38.645Z,98096.73
2018-07-12T13:44:16.721Z,98103.91
2018-07-12T13:46:45.578Z,98097.14
2018-07-12T13:49:14.120Z,98100.83
2018-07-12T13:51:42.617Z,98099.06
2018-07-12T13:54:11.175Z,98098.31
2018-07-12T13:56:39.630Z,98101.96
2018-07-12T13:59:08.246Z,98106.75
2018-07-12T14:01:36.718Z,98100.63
2018-07-12T14:04:05.274Z,98099.58
2018-07-12T14:06:33.766Z,98102.36
2018-07-12T14:09:02.282Z,98092.42
2018-07-12T14:11:30.766Z,98093.86
2018-07-12T14:13:59.261Z,98089.88
2018-07-12T14:16:27.738Z,98087.67
2018-07-12T14:18:56.259Z,98087.41
2018-07-12T14:21:24.778Z,98089.75
2018-07-12T14:23:53.308Z,98090.09
2018-07-12T14:26:21.854Z,98093.09
2018-07-12T14:28:50.353Z,98082.55
2018-07-12T14:31:18.826Z,98088.11
2018-07-12T14:33:47.384Z,98079.04
2018-07-12T14:36:15.870Z,98079.31
2018-07-12T14:38:44.342Z,98081.24
2018-07-12T14:41:12.842Z,98080.90
2018-07-12T14:43:41.321Z,98072.66
2018-07-12T14:46:11.025Z,98074.85
2018-07-12T14:48:39.540Z,98075.66
2018-07-12T14:51:08.057Z,98073.73
2018-07-12T14:53:36.520Z,98068.38
2018-07-12T14:56:05.122Z,98067.16
2018-07-12T14:58:33.610Z,98058.16
2018-07-12T15:01:02.106Z,98068.29
2018-07-12T15:03:30.594Z,98065.67
2018-07-12T15:05:59.090Z,98061.69
2018-07-12T15:08:27.550Z,98055.63
2018-07-12T15:10:56.123Z,98051.47
2018-07-12T15:13:24.593Z,98060.62
2018-07-12T15:15:53.157Z,98053.72
2018-07-12T15:18:21.628Z,98044.77
2018-07-12T15:20:50.197Z,98050.36
2018-07-12T15:23:18.777Z,98053.11
2018-07-12T15:25:47.346Z,98050.80
2018-07-12T15:28:15.797Z,98049.66
2018-07-12T15:30:44.303Z,98041.63
2018-07-12T15:33:12.989Z,98047.18
2018-07-12T15:35:41.516Z,98046.23
2018-07-12T15:38:10.075Z,98046.50
2018-07-12T15:40:38.581Z,98053.27
2018-07-12T15:43:07.107Z,98059.27
2018-07-12T15:45:35.757Z,98058.30
2018-07-12T15:48:04.311Z,98052.52
2018-07-12T15:50:32.810Z,98050.63
2018-07-12T15:53:01.343Z,98052.05
2018-07-12T15:55:29.846Z,98059.58
2018-07-12T15:57:58.339Z,98055.11
2018-07-12T16:00:26.980Z,98052.24
2018-07-12T16:02:55.509Z,98055.44
2018-07-12T16:05:23.998Z,98057.10
2018-07-12T16:07:52.794Z,98058.84
2018-07-12T16:10:21.311Z,98055.52
2018-07-12T16:12:49.829Z,98054.98
2018-07-12T16:15:18.328Z,98054.55
2018-07-12T16:17:46.782Z,98063.11
2018-07-12T16:20:15.262Z,98061.92
2018-07-12T16:22:43.741Z,98056.95
2018-07-12T16:25:12.185Z,98060.08
2018-07-12T16:27:40.700Z,98064.66
2018-07-12T16:30:09.151Z,98060.11
2018-07-12T16:32:37.656Z,98058.27
2018-07-12T16:35:06.381Z,98057.09
2018-07-12T16:37:34.865Z,98059.50
2018-07-12T16:40:03.372Z,98057.20
2018-07-12T16:42:31.869Z,98057.75
2018-07-12T16:45:00.330Z,98057.30
2018-07-12T16:47:28.813Z,98056.44
2018-07-12T16:49:57.270Z,98064.78
2018-07-12T16:52:25.825Z,98059.09
2018-07-12T16:54:54.290Z,98062.34
2018-07-12T16:57:22.789Z,98063.33
2018-07-12T16:59:51.265Z,98061.41
2018-07-12T17:02:19.797Z,98065.48
2018-07-12T17:04:48.286Z,98066.78
2018-07-12T17:07:16.795Z,98065.74
2018-07-12T17:09:45.237Z,98061.34
2018-07-12T17:12:13.913Z,98067.27
2018-07-12T17:14:42.393Z,98077.41
2018-07-12T17:17:10.931Z,98069.37
2018-07-12T17:19:39.419Z,98064.92
2018-07-12T17:22:08.595Z,98070.71
2018-07-12T17:24:37.093Z,98077.58
2018-07-12T17:27:05.918Z,98079.73
2018-07-12T17:29:34.402Z,98075.83
2018-07-12T17:32:02.923Z,98075.89
2018-07-12T17:34:31.406Z,98074.80
2018-07-12T17:36:59.915Z,98070.55
2018-07-12T17:39:28.420Z,98072.80
2018-07-12T17:41:56.942Z,98072.53
2018-07-12T17:44:25.428Z,98075.53
2018-07-12T17:46:53.977Z,98075.44
2018-07-12T17:49:22.446Z,98080.90
2018-07-12T17:51:50.946Z,98079.77
2018-07-12T17:54:27.673Z,98081.12
2018-07-12T17:56:59.297Z,98079.97
2018-07-12T17:59:27.781Z,98082.33
2018-07-12T18:01:56.302Z,98087.35
2018-07-12T18:04:25.614Z,98089.39
2018-07-12T18:06:54.121Z,98087.69
2018-07-12T18:09:22.598Z,98091.17
2018-07-12T18:11:51.072Z,98088.09
2018-07-12T18:14:19.595Z,98084.55
2018-07-12T18:16:48.088Z,98086.05
2018-07-12T18:19:16.537Z,98084.38
2018-07-12T18:21:45.040Z,98089.10
2018-07-12T18:24:13.529Z,98087.27
2018-07-12T18:26:42.006Z,98095.03
2018-07-12T18:29:10.523Z,98092.06
2018-07-12T18:31:39.205Z,98086.98
2018-07-12T18:34:07.711Z,98092.98
2018-07-12T18:36:36.308Z,98099.09
2018-07-12T18:39:06.410Z,98105.97
2018-07-12T18:41:34.878Z,98101.38
2018-07-12T18:44:03.442Z,98102.06
2018-07-12T18:46:31.893Z,98099.85
2018-07-12T18:49:00.377Z,98107.98
2018-07-12T18:51:28.838Z,98112.86
2018-07-12T18:53:57.318Z,98109.84
2018-07-12T18:56:25.774Z,98109.63
2018-07-12T18:58:54.289Z,98110.80
2018-07-12T19:01:24.914Z,98115.25
2018-07-12T19:03:53.455Z,98113.17
2018-07-12T19:06:21.949Z,98117.18
2018-07-12T19:08:50.569Z,98121.27
2018-07-12T19:11:19.049Z,98120.20
2018-07-12T19:13:48.168Z,98115.89
2018-07-12T19:16:17.346Z,98117.50
2018-07-12T19:18:46.041Z,98126.48
2018-07-12T19:21:14.821Z,98121.31
2018-07-12T19:23:43.330Z,98129.81
2018-07-12T19:26:11.833Z,98134.99
2018-07-12T19:28:40.369Z,98133.74
2018-07-12T19:31:08.963Z,98131.28
2018-07-12T19:33:37.573Z,98140.00
2018-07-12T19:36:06.177Z,98140.35
2018-07-12T19:38:34.732Z,98139.94
2018-07-12T19:41:03.243Z,98152.25
2018-07-12T19:43:31.830Z,98158.25
2018-07-12T19:46:00.323Z,98159.91
2018-07-12T19:48:28.873Z,98165.17
2018-07-12T19:50:57.382Z,98166.58
2018-07-12T19:53:25.927Z,98172.33
2018-07-12T19:55:54.406Z,98175.09
2018-07-12T19:58:22.926Z,98172.64
2018-07-12T20:00:51.421Z,98180.02
2018-07-12T20:03:19.977Z,98181.13
2018-07-12T20:05:48.513Z,98180.11
2018-07-12T20:08:17.038Z,98179.07
2018-07-12T20:10:45.646Z,98190.50
2018-07-12T20:13:14.135Z,98191.04
2018-07-12T20:15:42.644Z,98194.81
2018-07-12T20:18:11.155Z,98196.16
2018-07-12T20:20:39.763Z,98199.62
2018-07-12T20:23:08.281Z,98196.84
2018-07-12T20:25:36.905Z,98195.48
2018-07-12T20:28:05.679Z,98194.13
2018-07-12T20:30:34.221Z,98195.98
2018-07-12T20:33:03.127Z,98195.39
2018-07-12T20:35:31.652Z,98198.11
2018-07-12T20:38:00.192Z,98198.19
2018-07-12T20:40:28.774Z,98192.50
2018-07-12T20:42:57.289Z,98191.22
2018-07-12T20:45:25.882Z,98191.95
2018-07-12T20:47:54.510Z,98191.54
2018-07-12T20:50:23.083Z,98195.37
2018-07-12T20:52:51.602Z,98190.80
2018-07-12T20:55:20.127Z,98192.95
2018-07-12T20:57:50.537Z,98196.19
2018-07-12T21:00:19.058Z,98197.27
2018-07-12T21:02:48.494Z,98192.14
2018-07-12T21:05:17.061Z,98198.38
2018-07-12T21:07:45.554Z,98207.79
2018-07-12T21:10:14.110Z,98204.53
2018-07-12T21:12:42.738Z,98203.44
2018-07-12T21:15:11.265Z,98204.52
2018-07-12T21:17:39.752Z,98202.89
2018-07-12T21:20:08.346Z,98198.79
2018-07-12T21:22:37.003Z,98203.13
2018-07-12T21:25:05.573Z,98203.64
2018-07-12T21:27:34.073Z,98210.13
2018-07-12T21:30:02.642Z,98211.70
2018-07-12T21:32:31.138Z,98206.62
2018-07-12T21:34:59.701Z,98205.05
2018-07-12T21:37:28.190Z,98208.30
2018-07-12T21:39:56.707Z,98211.30
2018-07-12T21:42:25.209Z,98214.24
2018-07-12T21:44:53.827Z,98213.69
2018-07-12T21:47:22.682Z,98222.83
2018-07-12T21:49:51.266Z,98219.89
2018-07-12T21:52:19.985Z,98215.08
2018-07-12T21:54:49.396Z,98221.31
2018-07-12T21:57:19.315Z,98216.97
2018-07-12T21:59:47.866Z,98228.84
2018-07-12T22:02:16.470Z,98223.47
2018-07-12T22:04:45.086Z,98222.06
2018-07-12T22:08:26.096Z,98222.09
2018-07-12T22:10:57.929Z,98228.56
2018-07-12T22:13:27.240Z,98229.34
2018-07-12T22:15:55.819Z,98222.88
2018-07-12T22:18:25.203Z,98222.56
2018-07-12T22:20:53.735Z,98224.73
2018-07-12T22:23:22.258Z,98230.98
2018-07-12T22:25:50.831Z,98227.42
2018-07-12T22:28:20.711Z,98226.58
2018-07-12T22:30:49.298Z,98220.94
2018-07-12T22:33:17.841Z,98222.83
2018-07-12T22:35:47.314Z,98225.55
2018-07-12T22:38:15.809Z,98227.97
2018-07-12T22:40:44.334Z,98227.23
2018-07-12T22:43:13.466Z,98223.69
2018-07-12T22:45:41.988Z,98225.63
2018-07-12T22:48:10.568Z,98221.33
2018-07-12T22:50:39.071Z,98225.11
2018-07-12T22:53:07.561Z,98230.25
2018-07-12T22:55:36.064Z,98223.47
2018-07-12T22:58:04.553Z,98232.95
2018-07-12T23:00:33.081Z,98228.32
2018-07-12T23:03:01.590Z,98231.30
2018-07-12T23:05:30.115Z,98230.79
2018-07-12T23:07:58.625Z,98225.63
2018-07-12T23:10:27.186Z,98224.84
2018-07-12T23:12:55.836Z,98226.73
2018-07-12T23:15:24.349Z,98234.08
2018-07-12T23:17:52.838Z,98228.14
2018-07-12T23:20:21.909Z,98230.58
2018-07-12T23:22:50.434Z,98235.63
2018-07-12T23:25:18.947Z,98233.72
2018-07-12T23:27:47.608Z,98238.33
2018-07-12T23:30:16.149Z,98233.45
2018-07-12T23:32:45.744Z,98235.92
2018-07-12T23:35:14.243Z,98227.02
2018-07-12T23:37:43.452Z,98227.29
2018-07-12T23:40:11.923Z,98221.65
2018-07-12T23:42:40.456Z,98220.30
2018-07-12T23:45:09.002Z,98221.38
2018-07-12T23:47:37.554Z,98221.93
2018-07-12T23:50:06.794Z,98221.12
2018-07-12T23:52:35.353Z,98221.38
2018-07-12T23:55:03.854Z,98220.05
2018-07-12T23:57:32.367Z,98220.06
